sensor_id;sensor_type;location;lat;lon;timestamp;temperature;humidity
13268;DHT22;6702;47.068;15.458;2022-08-04T00:01:17;23.40;91.00
13268;DHT22;6702;47.068;15.458;2022-08-04T00:04:30;23.40;91.00
13268;DHT22;6702;47.068;15.458;2022-08-04T00:07:46;23.30;91.20
13268;DHT22;6702;47.068;15.458;2022-08-04T00:10:53;23.30;91.30
13268;DHT22;6702;47.068;15.458;2022-08-04T00:14:02;23.30;91.40
13268;DHT22;6702;47.068;15.458;2022-08-04T00:17:06;23.20;91.70
13268;DHT22;6702;47.068;15.458;2022-08-04T00:20:13;23.20;91.70
13268;DHT22;6702;47.068;15.458;2022-08-04T00:23:21;23.10;92.10
13268;DHT22;6702;47.068;15.458;2022-08-04T00:26:25;23.10;92.30
13268;DHT22;6702;47.068;15.458;2022-08-04T00:29:28;23.00;92.30
13268;DHT22;6702;47.068;15.458;2022-08-04T00:32:33;23.00;92.30
13268;DHT22;6702;47.068;15.458;2022-08-04T00:35:37;22.90;92.40
13268;DHT22;6702;47.068;15.458;2022-08-04T00:38:43;23.00;92.50
13268;DHT22;6702;47.068;15.458;2022-08-04T00:41:56;22.90;92.60
13268;DHT22;6702;47.068;15.458;2022-08-04T00:45:34;22.90;92.70
13268;DHT22;6702;47.068;15.458;2022-08-04T00:49:38;22.80;92.70
13268;DHT22;6702;47.068;15.458;2022-08-04T00:52:55;22.80;92.80
13268;DHT22;6702;47.068;15.458;2022-08-04T00:56:14;22.70;92.90
13268;DHT22;6702;47.068;15.458;2022-08-04T00:59:34;22.70;93.00
13268;DHT22;6702;47.068;15.458;2022-08-04T01:02:53;22.60;93.10
13268;DHT22;6702;47.068;15.458;2022-08-04T01:06:08;22.50;93.10
13268;DHT22;6702;47.068;15.458;2022-08-04T01:09:25;22.50;93.20
13268;DHT22;6702;47.068;15.458;2022-08-04T01:12:57;22.40;93.50
13268;DHT22;6702;47.068;15.458;2022-08-04T01:16:15;22.40;93.70
13268;DHT22;6702;47.068;15.458;2022-08-04T01:19:44;22.30;93.80
13268;DHT22;6702;47.068;15.458;2022-08-04T01:26:52;22.30;93.80
13268;DHT22;6702;47.068;15.458;2022-08-04T01:30:01;22.30;93.80
13268;DHT22;6702;47.068;15.458;2022-08-04T01:33:08;22.30;93.70
13268;DHT22;6702;47.068;15.458;2022-08-04T01:36:14;22.20;93.60
13268;DHT22;6702;47.068;15.458;2022-08-04T01:39:19;22.20;93.60
13268;DHT22;6702;47.068;15.458;2022-08-04T01:42:41;22.10;93.60
13268;DHT22;6702;47.068;15.458;2022-08-04T01:45:50;22.10;94.00
13268;DHT22;6702;47.068;15.458;2022-08-04T01:48:54;22.10;94.00
13268;DHT22;6702;47.068;15.458;2022-08-04T01:51:58;22.00;94.00
13268;DHT22;6702;47.068;15.458;2022-08-04T01:55:04;22.00;94.30
13268;DHT22;6702;47.068;15.458;2022-08-04T01:58:08;22.00;94.00
13268;DHT22;6702;47.068;15.458;2022-08-04T02:01:13;22.00;93.90
13268;DHT22;6702;47.068;15.458;2022-08-04T02:04:18;22.00;94.10
13268;DHT22;6702;47.068;15.458;2022-08-04T02:07:38;21.90;94.10
13268;DHT22;6702;47.068;15.458;2022-08-04T02:11:02;22.00;94.10
13268;DHT22;6702;47.068;15.458;2022-08-04T02:14:16;21.90;94.10
13268;DHT22;6702;47.068;15.458;2022-08-04T02:17:49;21.90;94.20
13268;DHT22;6702;47.068;15.458;2022-08-04T02:20:57;21.80;94.20
13268;DHT22;6702;47.068;15.458;2022-08-04T02:24:05;21.80;94.20
13268;DHT22;6702;47.068;15.458;2022-08-04T02:27:10;21.70;94.40
13268;DHT22;6702;47.068;15.458;2022-08-04T02:30:15;21.70;94.30
13268;DHT22;6702;47.068;15.458;2022-08-04T02:33:25;21.60;94.40
13268;DHT22;6702;47.068;15.458;2022-08-04T02:36:31;21.60;94.50
13268;DHT22;6702;47.068;15.458;2022-08-04T02:39:36;21.60;94.80
13268;DHT22;6702;47.068;15.458;2022-08-04T02:42:50;21.60;94.60
13268;DHT22;6702;47.068;15.458;2022-08-04T02:45:56;21.60;94.60
13268;DHT22;6702;47.068;15.458;2022-08-04T02:49:05;21.50;94.70
13268;DHT22;6702;47.068;15.458;2022-08-04T02:52:09;21.50;94.90
13268;DHT22;6702;47.068;15.458;2022-08-04T02:55:14;21.40;95.00
13268;DHT22;6702;47.068;15.458;2022-08-04T02:58:20;21.40;95.00
13268;DHT22;6702;47.068;15.458;2022-08-04T03:01:23;21.40;95.00
13268;DHT22;6702;47.068;15.458;2022-08-04T03:04:52;21.40;95.10
13268;DHT22;6702;47.068;15.458;2022-08-04T03:08:23;21.40;94.90
13268;DHT22;6702;47.068;15.458;2022-08-04T03:11:48;21.40;95.00
13268;DHT22;6702;47.068;15.458;2022-08-04T03:22:40;21.30;94.90
13268;DHT22;6702;47.068;15.458;2022-08-04T03:26:24;21.30;95.00
13268;DHT22;6702;47.068;15.458;2022-08-04T03:33:39;21.20;95.10
13268;DHT22;6702;47.068;15.458;2022-08-04T03:37:09;21.30;95.10
13268;DHT22;6702;47.068;15.458;2022-08-04T03:40:39;21.20;94.80
13268;DHT22;6702;47.068;15.458;2022-08-04T03:47:36;21.10;94.90
13268;DHT22;6702;47.068;15.458;2022-08-04T03:51:09;21.10;95.00
13268;DHT22;6702;47.068;15.458;2022-08-04T03:54:58;21.10;95.10
13268;DHT22;6702;47.068;15.458;2022-08-04T03:58:28;21.10;95.00
13268;DHT22;6702;47.068;15.458;2022-08-04T04:01:47;21.10;94.80
13268;DHT22;6702;47.068;15.458;2022-08-04T04:05:22;21.10;94.90
13268;DHT22;6702;47.068;15.458;2022-08-04T04:08:52;21.10;94.90
13268;DHT22;6702;47.068;15.458;2022-08-04T04:15:55;21.10;94.90
13268;DHT22;6702;47.068;15.458;2022-08-04T04:19:18;21.10;94.90
13268;DHT22;6702;47.068;15.458;2022-08-04T04:22:31;21.10;94.80
13268;DHT22;6702;47.068;15.458;2022-08-04T04:25:54;21.20;94.80
13268;DHT22;6702;47.068;15.458;2022-08-04T04:29:18;21.20;94.70
13268;DHT22;6702;47.068;15.458;2022-08-04T04:32:34;21.30;94.60
13268;DHT22;6702;47.068;15.458;2022-08-04T04:35:46;21.30;94.40
13268;DHT22;6702;47.068;15.458;2022-08-04T04:39:09;21.40;94.40
13268;DHT22;6702;47.068;15.458;2022-08-04T04:42:31;21.40;94.30
13268;DHT22;6702;47.068;15.458;2022-08-04T04:45:40;21.50;94.00
13268;DHT22;6702;47.068;15.458;2022-08-04T04:48:53;21.60;94.20
13268;DHT22;6702;47.068;15.458;2022-08-04T04:52:04;21.70;93.70
13268;DHT22;6702;47.068;15.458;2022-08-04T04:55:14;21.90;93.40
13268;DHT22;6702;47.068;15.458;2022-08-04T04:58:19;22.00;93.30
13268;DHT22;6702;47.068;15.458;2022-08-04T05:01:45;22.20;92.90
13268;DHT22;6702;47.068;15.458;2022-08-04T05:05:15;22.30;92.70
13268;DHT22;6702;47.068;15.458;2022-08-04T05:12:29;22.60;92.30
13268;DHT22;6702;47.068;15.458;2022-08-04T05:16:01;22.80;92.30
13268;DHT22;6702;47.068;15.458;2022-08-04T05:19:21;23.00;92.20
13268;DHT22;6702;47.068;15.458;2022-08-04T05:22:30;23.20;92.10
13268;DHT22;6702;47.068;15.458;2022-08-04T05:25:36;23.30;91.80
13268;DHT22;6702;47.068;15.458;2022-08-04T05:28:47;23.50;91.60
13268;DHT22;6702;47.068;15.458;2022-08-04T05:31:52;23.60;91.40
13268;DHT22;6702;47.068;15.458;2022-08-04T05:34:59;23.80;91.30
13268;DHT22;6702;47.068;15.458;2022-08-04T05:38:07;23.90;90.90
13268;DHT22;6702;47.068;15.458;2022-08-04T05:41:12;24.10;90.50
13268;DHT22;6702;47.068;15.458;2022-08-04T05:44:17;24.10;90.40
13268;DHT22;6702;47.068;15.458;2022-08-04T05:47:23;24.30;90.40
13268;DHT22;6702;47.068;15.458;2022-08-04T05:50:26;24.70;90.10
13268;DHT22;6702;47.068;15.458;2022-08-04T05:53:35;25.00;89.50
13268;DHT22;6702;47.068;15.458;2022-08-04T05:56:39;25.50;87.70
13268;DHT22;6702;47.068;15.458;2022-08-04T05:59:44;26.00;86.40
13268;DHT22;6702;47.068;15.458;2022-08-04T06:02:49;26.40;85.60
13268;DHT22;6702;47.068;15.458;2022-08-04T06:05:53;27.00;82.00
13268;DHT22;6702;47.068;15.458;2022-08-04T06:09:00;27.60;79.60
13268;DHT22;6702;47.068;15.458;2022-08-04T06:12:06;28.10;77.50
13268;DHT22;6702;47.068;15.458;2022-08-04T06:15:11;28.60;75.00
13268;DHT22;6702;47.068;15.458;2022-08-04T06:18:18;29.30;73.30
13268;DHT22;6702;47.068;15.458;2022-08-04T06:21:38;29.40;71.30
13268;DHT22;6702;47.068;15.458;2022-08-04T06:24:44;30.10;68.80
13268;DHT22;6702;47.068;15.458;2022-08-04T06:27:49;30.80;67.10
13268;DHT22;6702;47.068;15.458;2022-08-04T06:30:53;31.40;64.30
13268;DHT22;6702;47.068;15.458;2022-08-04T06:34:24;31.80;60.90
13268;DHT22;6702;47.068;15.458;2022-08-04T06:37:28;32.20;58.90
13268;DHT22;6702;47.068;15.458;2022-08-04T06:40:46;32.80;57.40
13268;DHT22;6702;47.068;15.458;2022-08-04T06:43:50;33.30;55.80
13268;DHT22;6702;47.068;15.458;2022-08-04T06:46:54;33.80;53.50
13268;DHT22;6702;47.068;15.458;2022-08-04T06:49:58;34.60;51.50
13268;DHT22;6702;47.068;15.458;2022-08-04T06:53:22;35.00;48.80
13268;DHT22;6702;47.068;15.458;2022-08-04T06:56:29;35.40;46.00
13268;DHT22;6702;47.068;15.458;2022-08-04T06:59:33;35.90;45.70
13268;DHT22;6702;47.068;15.458;2022-08-04T07:02:40;36.60;44.00
13268;DHT22;6702;47.068;15.458;2022-08-04T07:05:46;37.10;43.10
13268;DHT22;6702;47.068;15.458;2022-08-04T07:08:50;37.30;42.20
13268;DHT22;6702;47.068;15.458;2022-08-04T07:11:54;37.80;41.50
13268;DHT22;6702;47.068;15.458;2022-08-04T07:14:58;38.30;40.20
13268;DHT22;6702;47.068;15.458;2022-08-04T07:18:01;38.90;38.70
13268;DHT22;6702;47.068;15.458;2022-08-04T07:21:06;39.30;37.80
13268;DHT22;6702;47.068;15.458;2022-08-04T07:24:09;39.70;36.40
13268;DHT22;6702;47.068;15.458;2022-08-04T07:27:16;40.30;34.40
13268;DHT22;6702;47.068;15.458;2022-08-04T07:30:40;40.20;33.00
13268;DHT22;6702;47.068;15.458;2022-08-04T07:33:46;41.00;33.70
13268;DHT22;6702;47.068;15.458;2022-08-04T07:37:09;41.60;31.70
13268;DHT22;6702;47.068;15.458;2022-08-04T07:40:13;41.80;31.30
13268;DHT22;6702;47.068;15.458;2022-08-04T07:43:18;41.50;31.50
13268;DHT22;6702;47.068;15.458;2022-08-04T07:46:21;40.90;32.10
13268;DHT22;6702;47.068;15.458;2022-08-04T07:49:24;41.30;31.80
13268;DHT22;6702;47.068;15.458;2022-08-04T07:52:48;42.80;30.60
13268;DHT22;6702;47.068;15.458;2022-08-04T07:56:12;44.50;29.40
13268;DHT22;6702;47.068;15.458;2022-08-04T07:59:18;45.30;28.10
13268;DHT22;6702;47.068;15.458;2022-08-04T08:02:22;46.20;27.40
13268;DHT22;6702;47.068;15.458;2022-08-04T08:05:26;46.80;26.60
13268;DHT22;6702;47.068;15.458;2022-08-04T08:08:30;47.30;26.30
13268;DHT22;6702;47.068;15.458;2022-08-04T08:11:34;46.50;26.40
13268;DHT22;6702;47.068;15.458;2022-08-04T08:14:58;47.00;26.70
13268;DHT22;6702;47.068;15.458;2022-08-04T08:18:03;48.00;25.90
13268;DHT22;6702;47.068;15.458;2022-08-04T08:21:06;48.70;25.40
13268;DHT22;6702;47.068;15.458;2022-08-04T08:24:10;49.50;24.80
13268;DHT22;6702;47.068;15.458;2022-08-04T08:27:13;48.70;24.70
13268;DHT22;6702;47.068;15.458;2022-08-04T08:30:18;47.80;25.30
13268;DHT22;6702;47.068;15.458;2022-08-04T08:33:21;47.50;25.80
13268;DHT22;6702;47.068;15.458;2022-08-04T08:36:31;47.60;25.80
13268;DHT22;6702;47.068;15.458;2022-08-04T08:39:38;48.00;25.60
13268;DHT22;6702;47.068;15.458;2022-08-04T08:43:15;46.90;26.30
13268;DHT22;6702;47.068;15.458;2022-08-04T08:46:50;45.80;26.60
13268;DHT22;6702;47.068;15.458;2022-08-04T08:50:09;45.00;27.30
13268;DHT22;6702;47.068;15.458;2022-08-04T08:57:01;42.00;29.10
13268;DHT22;6702;47.068;15.458;2022-08-04T09:00:13;40.50;31.30
13268;DHT22;6702;47.068;15.458;2022-08-04T09:03:50;39.70;32.20
13268;DHT22;6702;47.068;15.458;2022-08-04T09:07:17;38.50;33.90
13268;DHT22;6702;47.068;15.458;2022-08-04T09:10:26;37.70;34.90
13268;DHT22;6702;47.068;15.458;2022-08-04T09:13:39;37.10;35.90
13268;DHT22;6702;47.068;15.458;2022-08-04T09:16:48;36.60;36.90
13268;DHT22;6702;47.068;15.458;2022-08-04T09:20:00;35.90;38.10
13268;DHT22;6702;47.068;15.458;2022-08-04T09:23:16;35.20;39.00
13268;DHT22;6702;47.068;15.458;2022-08-04T09:26:27;35.10;39.60
13268;DHT22;6702;47.068;15.458;2022-08-04T09:29:35;34.90;40.00
13268;DHT22;6702;47.068;15.458;2022-08-04T09:32:48;34.70;40.70
13268;DHT22;6702;47.068;15.458;2022-08-04T09:35:59;34.40;41.00
13268;DHT22;6702;47.068;15.458;2022-08-04T09:39:10;34.40;41.20
13268;DHT22;6702;47.068;15.458;2022-08-04T09:42:22;34.10;41.00
13268;DHT22;6702;47.068;15.458;2022-08-04T09:45:35;33.70;41.60
13268;DHT22;6702;47.068;15.458;2022-08-04T09:48:52;33.80;41.90
13268;DHT22;6702;47.068;15.458;2022-08-04T09:52:06;33.70;42.20
13268;DHT22;6702;47.068;15.458;2022-08-04T09:55:16;33.70;42.10
13268;DHT22;6702;47.068;15.458;2022-08-04T09:58:27;33.80;42.70
13268;DHT22;6702;47.068;15.458;2022-08-04T10:01:36;33.70;42.50
13268;DHT22;6702;47.068;15.458;2022-08-04T10:04:41;33.80;42.70
13268;DHT22;6702;47.068;15.458;2022-08-04T10:08:03;33.90;42.50
13268;DHT22;6702;47.068;15.458;2022-08-04T10:11:23;33.80;42.60
13268;DHT22;6702;47.068;15.458;2022-08-04T10:14:37;33.80;43.00
13268;DHT22;6702;47.068;15.458;2022-08-04T10:17:57;33.90;42.90
13268;DHT22;6702;47.068;15.458;2022-08-04T10:21:07;34.00;42.40
13268;DHT22;6702;47.068;15.458;2022-08-04T10:24:30;33.90;42.60
13268;DHT22;6702;47.068;15.458;2022-08-04T10:27:39;33.50;43.30
13268;DHT22;6702;47.068;15.458;2022-08-04T10:30:48;33.40;43.70
13268;DHT22;6702;47.068;15.458;2022-08-04T10:33:55;33.60;43.60
13268;DHT22;6702;47.068;15.458;2022-08-04T10:37:08;33.70;43.30
13268;DHT22;6702;47.068;15.458;2022-08-04T10:40:20;33.70;43.40
13268;DHT22;6702;47.068;15.458;2022-08-04T10:43:50;33.60;43.30
13268;DHT22;6702;47.068;15.458;2022-08-04T10:46:57;33.20;44.10
13268;DHT22;6702;47.068;15.458;2022-08-04T10:50:03;33.20;44.10
13268;DHT22;6702;47.068;15.458;2022-08-04T10:53:12;33.30;43.90
13268;DHT22;6702;47.068;15.458;2022-08-04T10:56:27;33.40;43.70
13268;DHT22;6702;47.068;15.458;2022-08-04T10:59:38;33.60;43.50
13268;DHT22;6702;47.068;15.458;2022-08-04T11:02:57;33.70;44.00
13268;DHT22;6702;47.068;15.458;2022-08-04T11:06:00;33.40;44.30
13268;DHT22;6702;47.068;15.458;2022-08-04T11:09:04;33.30;44.90
13268;DHT22;6702;47.068;15.458;2022-08-04T11:12:22;33.30;44.70
13268;DHT22;6702;47.068;15.458;2022-08-04T11:15:30;33.40;44.60
13268;DHT22;6702;47.068;15.458;2022-08-04T11:18:43;33.10;44.90
13268;DHT22;6702;47.068;15.458;2022-08-04T11:21:54;33.40;44.80
13268;DHT22;6702;47.068;15.458;2022-08-04T11:25:05;33.40;44.30
13268;DHT22;6702;47.068;15.458;2022-08-04T11:28:21;33.60;44.40
13268;DHT22;6702;47.068;15.458;2022-08-04T11:31:29;33.40;44.20
13268;DHT22;6702;47.068;15.458;2022-08-04T11:34:33;33.60;44.40
13268;DHT22;6702;47.068;15.458;2022-08-04T11:37:44;33.50;43.70
13268;DHT22;6702;47.068;15.458;2022-08-04T11:40:53;33.60;44.20
13268;DHT22;6702;47.068;15.458;2022-08-04T11:44:05;33.90;44.00
13268;DHT22;6702;47.068;15.458;2022-08-04T11:47:21;33.90;43.80
13268;DHT22;6702;47.068;15.458;2022-08-04T11:50:32;33.80;43.80
13268;DHT22;6702;47.068;15.458;2022-08-04T11:53:39;33.90;43.80
13268;DHT22;6702;47.068;15.458;2022-08-04T11:56:44;33.80;43.60
13268;DHT22;6702;47.068;15.458;2022-08-04T11:59:49;33.80;43.80
13268;DHT22;6702;47.068;15.458;2022-08-04T12:03:05;33.80;44.10
13268;DHT22;6702;47.068;15.458;2022-08-04T12:06:17;33.80;43.50
13268;DHT22;6702;47.068;15.458;2022-08-04T12:09:28;33.80;43.70
13268;DHT22;6702;47.068;15.458;2022-08-04T12:12:38;33.80;44.00
13268;DHT22;6702;47.068;15.458;2022-08-04T12:15:52;33.70;44.00
13268;DHT22;6702;47.068;15.458;2022-08-04T12:19:02;33.90;44.20
13268;DHT22;6702;47.068;15.458;2022-08-04T12:22:10;34.00;44.40
13268;DHT22;6702;47.068;15.458;2022-08-04T12:25:20;33.80;45.20
13268;DHT22;6702;47.068;15.458;2022-08-04T12:28:31;33.80;45.10
13268;DHT22;6702;47.068;15.458;2022-08-04T12:32:01;33.70;45.30
13268;DHT22;6702;47.068;15.458;2022-08-04T12:35:11;33.70;45.30
13268;DHT22;6702;47.068;15.458;2022-08-04T12:38:15;33.80;45.30
13268;DHT22;6702;47.068;15.458;2022-08-04T12:41:23;33.90;45.40
13268;DHT22;6702;47.068;15.458;2022-08-04T12:44:32;34.00;45.20
13268;DHT22;6702;47.068;15.458;2022-08-04T12:47:40;33.90;44.90
13268;DHT22;6702;47.068;15.458;2022-08-04T12:50:47;33.40;45.30
13268;DHT22;6702;47.068;15.458;2022-08-04T12:53:50;33.70;45.30
13268;DHT22;6702;47.068;15.458;2022-08-04T12:56:57;33.80;45.30
13268;DHT22;6702;47.068;15.458;2022-08-04T13:00:01;33.80;45.60
13268;DHT22;6702;47.068;15.458;2022-08-04T13:03:08;33.70;46.20
13268;DHT22;6702;47.068;15.458;2022-08-04T13:06:13;33.60;46.30
13268;DHT22;6702;47.068;15.458;2022-08-04T13:09:28;33.50;46.20
13268;DHT22;6702;47.068;15.458;2022-08-04T13:12:34;33.50;45.40
13268;DHT22;6702;47.068;15.458;2022-08-04T13:15:37;33.40;45.60
13268;DHT22;6702;47.068;15.458;2022-08-04T13:18:49;33.30;45.60
13268;DHT22;6702;47.068;15.458;2022-08-04T13:21:53;33.30;46.10
13268;DHT22;6702;47.068;15.458;2022-08-04T13:25:04;33.20;45.00
13268;DHT22;6702;47.068;15.458;2022-08-04T13:28:28;33.30;45.00
13268;DHT22;6702;47.068;15.458;2022-08-04T13:31:35;33.50;45.10
13268;DHT22;6702;47.068;15.458;2022-08-04T13:34:41;33.60;44.60
13268;DHT22;6702;47.068;15.458;2022-08-04T13:37:54;33.70;44.40
13268;DHT22;6702;47.068;15.458;2022-08-04T13:41:01;33.80;44.10
13268;DHT22;6702;47.068;15.458;2022-08-04T13:44:06;33.80;44.30
13268;DHT22;6702;47.068;15.458;2022-08-04T13:47:23;34.00;45.20
13268;DHT22;6702;47.068;15.458;2022-08-04T13:50:31;34.00;45.00
13268;DHT22;6702;47.068;15.458;2022-08-04T13:53:37;33.90;45.90
13268;DHT22;6702;47.068;15.458;2022-08-04T13:56:47;33.70;46.30
13268;DHT22;6702;47.068;15.458;2022-08-04T13:59:54;33.40;47.10
13268;DHT22;6702;47.068;15.458;2022-08-04T14:03:01;33.50;47.10
13268;DHT22;6702;47.068;15.458;2022-08-04T14:06:28;33.60;47.20
13268;DHT22;6702;47.068;15.458;2022-08-04T14:09:33;33.60;46.60
13268;DHT22;6702;47.068;15.458;2022-08-04T14:12:43;33.50;46.60
13268;DHT22;6702;47.068;15.458;2022-08-04T14:15:49;33.40;46.90
13268;DHT22;6702;47.068;15.458;2022-08-04T14:19:03;33.20;47.50
13268;DHT22;6702;47.068;15.458;2022-08-04T14:22:27;33.20;47.80
13268;DHT22;6702;47.068;15.458;2022-08-04T14:25:30;33.20;48.00
13268;DHT22;6702;47.068;15.458;2022-08-04T14:28:36;33.20;47.90
13268;DHT22;6702;47.068;15.458;2022-08-04T14:32:00;33.10;48.20
13268;DHT22;6702;47.068;15.458;2022-08-04T14:35:14;32.80;48.30
13268;DHT22;6702;47.068;15.458;2022-08-04T14:38:18;33.00;47.60
13268;DHT22;6702;47.068;15.458;2022-08-04T14:41:24;33.10;48.00
13268;DHT22;6702;47.068;15.458;2022-08-04T14:44:28;33.20;48.10
13268;DHT22;6702;47.068;15.458;2022-08-04T14:47:38;33.10;47.70
13268;DHT22;6702;47.068;15.458;2022-08-04T14:50:53;33.20;47.80
13268;DHT22;6702;47.068;15.458;2022-08-04T14:53:58;33.20;47.60
13268;DHT22;6702;47.068;15.458;2022-08-04T14:57:08;33.20;47.30
13268;DHT22;6702;47.068;15.458;2022-08-04T15:00:12;33.00;47.40
13268;DHT22;6702;47.068;15.458;2022-08-04T15:03:27;32.90;48.00
13268;DHT22;6702;47.068;15.458;2022-08-04T15:06:32;33.00;47.70
13268;DHT22;6702;47.068;15.458;2022-08-04T15:09:37;33.10;47.70
13268;DHT22;6702;47.068;15.458;2022-08-04T15:12:41;33.10;47.70
13268;DHT22;6702;47.068;15.458;2022-08-04T15:15:44;33.10;48.20
13268;DHT22;6702;47.068;15.458;2022-08-04T15:19:08;33.10;48.20
13268;DHT22;6702;47.068;15.458;2022-08-04T15:22:12;33.20;47.80
13268;DHT22;6702;47.068;15.458;2022-08-04T15:25:19;33.30;47.50
13268;DHT22;6702;47.068;15.458;2022-08-04T15:28:25;33.30;47.20
13268;DHT22;6702;47.068;15.458;2022-08-04T15:31:35;33.40;47.00
13268;DHT22;6702;47.068;15.458;2022-08-04T15:35:02;33.30;46.90
13268;DHT22;6702;47.068;15.458;2022-08-04T15:38:10;33.30;47.20
13268;DHT22;6702;47.068;15.458;2022-08-04T15:41:25;33.20;47.10
13268;DHT22;6702;47.068;15.458;2022-08-04T15:44:57;33.10;47.20
13268;DHT22;6702;47.068;15.458;2022-08-04T15:48:31;33.00;47.90
13268;DHT22;6702;47.068;15.458;2022-08-04T15:51:35;33.10;47.60
13268;DHT22;6702;47.068;15.458;2022-08-04T15:54:39;33.20;47.40
13268;DHT22;6702;47.068;15.458;2022-08-04T15:57:58;33.30;47.10
13268;DHT22;6702;47.068;15.458;2022-08-04T16:01:15;33.40;47.20
13268;DHT22;6702;47.068;15.458;2022-08-04T16:04:23;33.50;47.10
13268;DHT22;6702;47.068;15.458;2022-08-04T16:07:53;33.40;47.30
13268;DHT22;6702;47.068;15.458;2022-08-04T16:10:58;33.40;46.90
13268;DHT22;6702;47.068;15.458;2022-08-04T16:14:09;33.30;47.10
13268;DHT22;6702;47.068;15.458;2022-08-04T16:17:16;33.30;47.10
13268;DHT22;6702;47.068;15.458;2022-08-04T16:20:21;33.30;47.40
13268;DHT22;6702;47.068;15.458;2022-08-04T16:23:49;33.20;47.50
13268;DHT22;6702;47.068;15.458;2022-08-04T16:27:03;33.10;47.80
13268;DHT22;6702;47.068;15.458;2022-08-04T16:30:11;33.10;47.70
13268;DHT22;6702;47.068;15.458;2022-08-04T16:33:15;33.10;47.70
13268;DHT22;6702;47.068;15.458;2022-08-04T16:36:55;33.10;47.70
13268;DHT22;6702;47.068;15.458;2022-08-04T16:40:30;33.00;47.70
13268;DHT22;6702;47.068;15.458;2022-08-04T16:43:39;32.80;48.00
13268;DHT22;6702;47.068;15.458;2022-08-04T16:46:43;32.80;48.30
13268;DHT22;6702;47.068;15.458;2022-08-04T16:50:07;32.70;48.20
13268;DHT22;6702;47.068;15.458;2022-08-04T16:53:10;32.70;48.40
13268;DHT22;6702;47.068;15.458;2022-08-04T16:56:34;32.70;48.60
13268;DHT22;6702;47.068;15.458;2022-08-04T16:59:37;32.70;48.40
13268;DHT22;6702;47.068;15.458;2022-08-04T17:02:42;32.50;48.70
13268;DHT22;6702;47.068;15.458;2022-08-04T17:05:46;32.40;49.00
13268;DHT22;6702;47.068;15.458;2022-08-04T17:08:50;32.30;49.60
13268;DHT22;6702;47.068;15.458;2022-08-04T17:11:53;32.20;49.30
13268;DHT22;6702;47.068;15.458;2022-08-04T17:14:57;32.00;49.80
13268;DHT22;6702;47.068;15.458;2022-08-04T17:18:15;31.90;50.00
13268;DHT22;6702;47.068;15.458;2022-08-04T17:21:21;31.80;50.10
13268;DHT22;6702;47.068;15.458;2022-08-04T17:24:24;31.80;50.20
13268;DHT22;6702;47.068;15.458;2022-08-04T17:27:28;31.70;50.60
13268;DHT22;6702;47.068;15.458;2022-08-04T17:30:53;31.70;50.80
13268;DHT22;6702;47.068;15.458;2022-08-04T17:34:07;31.70;50.80
13268;DHT22;6702;47.068;15.458;2022-08-04T17:37:18;31.60;50.80
13268;DHT22;6702;47.068;15.458;2022-08-04T17:40:55;31.50;50.80
13268;DHT22;6702;47.068;15.458;2022-08-04T17:44:00;31.50;50.90
13268;DHT22;6702;47.068;15.458;2022-08-04T17:47:15;31.40;51.00
13268;DHT22;6702;47.068;15.458;2022-08-04T17:50:27;31.40;51.20
13268;DHT22;6702;47.068;15.458;2022-08-04T17:53:31;31.30;51.50
13268;DHT22;6702;47.068;15.458;2022-08-04T17:56:56;31.20;51.60
13268;DHT22;6702;47.068;15.458;2022-08-04T18:00:00;31.20;52.00
13268;DHT22;6702;47.068;15.458;2022-08-04T18:03:03;31.00;52.40
13268;DHT22;6702;47.068;15.458;2022-08-04T18:06:16;31.00;52.70
13268;DHT22;6702;47.068;15.458;2022-08-04T18:09:27;30.90;52.70
13268;DHT22;6702;47.068;15.458;2022-08-04T18:12:51;30.80;53.00
13268;DHT22;6702;47.068;15.458;2022-08-04T18:16:00;30.60;53.30
13268;DHT22;6702;47.068;15.458;2022-08-04T18:19:08;30.60;53.70
13268;DHT22;6702;47.068;15.458;2022-08-04T18:22:13;30.50;53.80
13268;DHT22;6702;47.068;15.458;2022-08-04T18:25:29;30.40;54.00
13268;DHT22;6702;47.068;15.458;2022-08-04T18:28:52;30.40;54.30
13268;DHT22;6702;47.068;15.458;2022-08-04T18:31:55;30.30;55.00
13268;DHT22;6702;47.068;15.458;2022-08-04T18:34:59;30.20;55.30
13268;DHT22;6702;47.068;15.458;2022-08-04T18:38:07;30.20;55.60
13268;DHT22;6702;47.068;15.458;2022-08-04T18:41:25;30.20;55.80
13268;DHT22;6702;47.068;15.458;2022-08-04T18:44:28;30.10;56.00
13268;DHT22;6702;47.068;15.458;2022-08-04T18:47:32;30.10;56.40
13268;DHT22;6702;47.068;15.458;2022-08-04T18:50:55;30.00;56.90
13268;DHT22;6702;47.068;15.458;2022-08-04T18:54:13;29.90;56.90
13268;DHT22;6702;47.068;15.458;2022-08-04T18:57:17;29.80;57.20
13268;DHT22;6702;47.068;15.458;2022-08-04T19:00:41;29.90;58.00
13268;DHT22;6702;47.068;15.458;2022-08-04T19:03:46;29.80;58.60
13268;DHT22;6702;47.068;15.458;2022-08-04T19:06:58;29.70;59.00
13268;DHT22;6702;47.068;15.458;2022-08-04T19:10:22;29.60;59.60
13268;DHT22;6702;47.068;15.458;2022-08-04T19:13:27;29.50;60.10
13268;DHT22;6702;47.068;15.458;2022-08-04T19:16:36;29.50;61.00
13268;DHT22;6702;47.068;15.458;2022-08-04T19:19:41;29.40;64.70
13268;DHT22;6702;47.068;15.458;2022-08-04T19:22:50;29.40;66.50
13268;DHT22;6702;47.068;15.458;2022-08-04T19:26:15;29.30;67.00
13268;DHT22;6702;47.068;15.458;2022-08-04T19:29:28;29.20;67.30
13268;DHT22;6702;47.068;15.458;2022-08-04T19:32:38;29.10;68.40
13268;DHT22;6702;47.068;15.458;2022-08-04T19:35:49;29.00;67.40
13268;DHT22;6702;47.068;15.458;2022-08-04T19:38:52;28.90;67.30
13268;DHT22;6702;47.068;15.458;2022-08-04T19:41:58;28.80;67.40
13268;DHT22;6702;47.068;15.458;2022-08-04T19:45:21;28.80;67.90
13268;DHT22;6702;47.068;15.458;2022-08-04T19:48:44;28.70;68.00
13268;DHT22;6702;47.068;15.458;2022-08-04T19:52:00;28.60;69.40
13268;DHT22;6702;47.068;15.458;2022-08-04T19:55:05;28.50;69.90
13268;DHT22;6702;47.068;15.458;2022-08-04T19:58:13;28.50;69.90
13268;DHT22;6702;47.068;15.458;2022-08-04T20:01:16;28.40;70.00
13268;DHT22;6702;47.068;15.458;2022-08-04T20:04:38;28.30;70.30
13268;DHT22;6702;47.068;15.458;2022-08-04T20:07:43;28.20;70.70
13268;DHT22;6702;47.068;15.458;2022-08-04T20:10:47;28.20;71.00
13268;DHT22;6702;47.068;15.458;2022-08-04T20:14:12;28.00;71.20
13268;DHT22;6702;47.068;15.458;2022-08-04T20:17:15;27.90;71.70
13268;DHT22;6702;47.068;15.458;2022-08-04T20:20:18;27.90;72.20
13268;DHT22;6702;47.068;15.458;2022-08-04T20:23:23;27.90;72.50
13268;DHT22;6702;47.068;15.458;2022-08-04T20:26:46;27.80;73.20
13268;DHT22;6702;47.068;15.458;2022-08-04T20:29:52;27.70;73.10
13268;DHT22;6702;47.068;15.458;2022-08-04T20:32:56;27.70;73.80
13268;DHT22;6702;47.068;15.458;2022-08-04T20:36:02;27.70;73.80
13268;DHT22;6702;47.068;15.458;2022-08-04T20:39:07;27.50;73.80
13268;DHT22;6702;47.068;15.458;2022-08-04T20:42:16;27.50;74.50